Aeroporto :
LOGIN :

Iscrizione | Disclaimer

   EN    FR    IT 

 










Sommario :    VFR   VFR Marginale   IFR   IFR Intensivo   IFR Molto Intensivo
Visibilità : 
Base nubi : 
>= 8 km
>= 3000ft
5 / 8 km
1000 / 3000 ft
1500m / 5 km
500 / 1000 ft
800 / 1500m
200 / 500 ft
< 800m
< 200 ft
Simboli :   Temporali  Nebbia  Neve Forte  Precipitazioni Forti  Vento > 20 kt
SIGMETs :   Varie  Temporali  Ghiacco  Turbolenza  Onda orograficha  Ceneri Vulcaniche






- Altitudine del aeroporto : -11 ft
- Codice IATA : AMS


EHAM - Amsterdam Schiphol

ULTIMO METAR :
  • 291225Z 28016KT 9999 FEW022 BKN033 06/02 Q1005 NOSIG

METARs OBSOLETI :
  • 291155Z 28015KT 250V310 9999 FEW022 BKN033 06/02 Q1005 NOSIG
  • 291125Z 28018KT 9999 FEW020CB BKN032 06/02 Q1005 NOSIG
  • 291055Z 28020KT 9999 -SHRA FEW020CB BKN032 06/03 Q1005 NOSIG
  • 291025Z 27021KT 9999 -SHRA FEW020CB BKN032 06/03 Q1004 NOSIG
  • 290955Z 27020KT 9999 -SHRA FEW020TCU BKN032 06/02 Q1004 NOSIG

TAF TAF EHAM
Valido dal 29 a 12 ore il 30 a 18 ore UTC


291110Z 2912/3018 28018G28KT 9999 SCT025
PROB30
TEMPO 2912/2914 7000 -SHRA FEW022CB BKN025
BECMG 2916/2919 24014KT
BECMG 3003/3006 BKN008
BECMG 3009/3012 21012KT SCT025
BECMG 3012/3015 18012KT
BECMG 3015/3018 BKN012
PROB40
TEMPO 3016/3018 3000 DZ BKN008



MetMap, La meteo Aeronautica in un colpo d'occhio ! - Copyright ORBIFLY Dicembre 2007 - Disclaimer

ORBIFLY MET'MAP TEAM :

Programmazione e sviluppo : Alexandra Zaïnal
Concezione : Baudouin d'Aumeries
Aiuto per la programmazione : Marc-Olivier Méhu
Supporto tecnico e logistico : Manuel Goepfert
Aiuto per la traduzione : Arnaldo La Scala

Contatto : metmap@orbifly.com




FONTI E CREDITI :

   NOAA